createdAt,value
2022-11-06T00:00:23.294Z,101347.69
2022-11-06T00:02:51.273Z,101348.25
2022-11-06T00:05:36.690Z,101336.41
2022-11-06T00:08:06.256Z,101336.41
2022-11-06T00:10:34.976Z,101334.41
2022-11-06T00:13:03.151Z,101339.53
2022-11-06T00:15:31.221Z,101328.38
2022-11-06T00:17:59.077Z,101330.19
2022-11-06T00:20:27.020Z,101330.38
2022-11-06T00:22:55.144Z,101329.56
2022-11-06T00:25:24.353Z,101323.66
2022-11-06T00:27:52.251Z,101319.84
2022-11-06T00:30:20.864Z,101317.13
2022-11-06T00:32:48.981Z,101313.28
2022-11-06T00:35:17.043Z,101312.72
2022-11-06T00:37:45.094Z,101302.44
2022-11-06T00:40:14.320Z,101304.03
2022-11-06T00:42:43.724Z,101312.72
2022-11-06T00:45:11.933Z,101322.44
2022-11-06T00:47:39.946Z,101321.34
2022-11-06T00:50:08.782Z,101317.13
2022-11-06T00:52:36.719Z,101332.91
2022-11-06T00:55:04.891Z,101338.41
2022-11-06T00:57:33.421Z,101343.06
2022-11-06T01:00:03.757Z,101337.41
2022-11-06T01:02:31.781Z,101346.16
2022-11-06T01:04:59.961Z,101329.97
2022-11-06T01:07:28.270Z,101327.34
2022-11-06T01:09:56.198Z,101314.97
2022-11-06T01:12:24.070Z,101319.88
2022-11-06T01:14:52.121Z,101320.41
2022-11-06T01:17:21.424Z,101313.47
2022-11-06T01:19:49.327Z,101311.34
2022-11-06T01:22:17.798Z,101307.69
2022-11-06T01:24:45.799Z,101304.50
2022-11-06T01:27:26.436Z,101298.66
2022-11-06T01:29:55.027Z,101289.91
2022-11-06T01:32:24.348Z,101290.22
2022-11-06T01:34:52.632Z,101288.91
2022-11-06T01:37:20.566Z,101285.66
2022-11-06T01:39:50.618Z,101286.56
2022-11-06T01:42:21.444Z,101281.63
2022-11-06T01:45:22.866Z,101277.28
2022-11-06T01:47:52.605Z,101267.94
2022-11-06T01:50:21.065Z,101278.00
2022-11-06T01:52:52.042Z,101274.47
2022-11-06T01:55:24.357Z,101267.44
2022-11-06T01:57:53.121Z,101266.03
2022-11-06T02:00:21.483Z,101264.75
2022-11-06T02:02:51.662Z,101267.94
2022-11-06T02:05:19.857Z,101269.56
2022-11-06T02:07:48.085Z,101260.31
2022-11-06T02:10:16.236Z,101269.56
2022-11-06T02:12:53.545Z,101262.53
2022-11-06T02:15:29.083Z,101266.94
2022-11-06T02:18:08.941Z,101261.50
2022-11-06T02:20:41.124Z,101257.72
2022-11-06T02:23:31.889Z,101252.06
2022-11-06T02:26:19.531Z,101249.84
2022-11-06T02:28:54.511Z,101255.59
2022-11-06T02:31:27.373Z,101252.28
2022-11-06T02:34:00.823Z,101250.38
2022-11-06T02:36:34.068Z,101250.88
2022-11-06T02:39:05.801Z,101249.34
2022-11-06T02:41:38.898Z,101251.25
2022-11-06T02:44:13.126Z,101245.84
2022-11-06T02:46:44.938Z,101233.97
2022-11-06T02:49:16.397Z,101236.69
2022-11-06T02:51:49.895Z,101233.97
2022-11-06T02:54:21.274Z,101238.00
2022-11-06T02:56:53.694Z,101233.97
2022-11-06T02:59:27.910Z,101237.22
2022-11-06T03:01:59.266Z,101231.78
2022-11-06T03:04:33.154Z,101231.78
2022-11-06T03:07:07.473Z,101227.97
2022-11-06T03:09:36.399Z,101223.94
2022-11-06T03:12:17.601Z,101220.94
2022-11-06T03:14:54.907Z,101215.53
2022-11-06T03:17:30.474Z,101216.03
2022-11-06T03:20:05.092Z,101206.78
2022-11-06T03:22:36.988Z,101209.91
2022-11-06T03:25:16.013Z,101209.91
2022-11-06T03:27:52.542Z,101213.63
2022-11-06T03:30:22.286Z,101207.03
2022-11-06T03:32:55.599Z,101204.53
2022-11-06T03:35:27.756Z,101209.16
2022-11-06T03:37:59.284Z,101213.47
2022-11-06T03:40:31.089Z,101203.72
2022-11-06T03:43:03.814Z,101208.53
2022-11-06T03:45:35.088Z,101205.81
2022-11-06T03:48:09.186Z,101221.69
2022-11-06T03:50:42.022Z,101218.19
2022-11-06T03:53:14.214Z,101223.13
2022-11-06T03:55:46.549Z,101222.91
2022-11-06T03:58:18.334Z,101219.38
2022-11-06T04:00:48.668Z,101228.63
2022-11-06T04:03:22.122Z,101228.13
2022-11-06T04:05:56.051Z,101226.00
2022-11-06T04:08:45.804Z,101217.34
2022-11-06T04:11:36.277Z,101207.69
2022-11-06T04:14:05.974Z,101208.28
2022-11-06T04:16:39.665Z,101211.91
2022-11-06T04:19:11.495Z,101198.56
2022-11-06T04:21:49.609Z,101203.47
2022-11-06T04:24:45.114Z,101199.66
2022-11-06T04:27:24.944Z,101194.81
2022-11-06T04:30:04.892Z,101192.63
2022-11-06T04:32:49.188Z,101194.81
2022-11-06T04:35:25.598Z,101189.41
2022-11-06T04:37:59.340Z,101184.59
2022-11-06T04:40:38.472Z,101184.09
2022-11-06T04:43:13.392Z,101173.13
2022-11-06T04:45:46.284Z,101171.53
2022-11-06T04:48:17.075Z,101168.31
2022-11-06T04:50:51.946Z,101172.03
2022-11-06T04:53:21.219Z,101155.25
2022-11-06T04:55:51.372Z,101166.59
2022-11-06T04:58:19.768Z,101154.69
2022-11-06T05:00:49.815Z,101149.25
2022-11-06T05:03:19.880Z,101147.84
2022-11-06T05:05:48.620Z,101142.41
2022-11-06T05:08:18.735Z,101137.31
2022-11-06T05:10:47.909Z,101129.75
2022-11-06T05:13:16.966Z,101119.44
2022-11-06T05:15:44.936Z,101117.53
2022-11-06T05:18:13.447Z,101116.72
2022-11-06T05:20:43.253Z,101112.09
2022-11-06T05:23:10.162Z,101098.25
2022-11-06T05:25:40.364Z,101096.41
2022-11-06T05:28:09.948Z,101116.19
2022-11-06T05:30:38.470Z,101105.47
2022-11-06T05:33:06.595Z,101099.44
2022-11-06T05:35:34.759Z,101109.78
2022-11-06T05:38:04.780Z,101102.16
2022-11-06T05:40:33.093Z,101107.06
2022-11-06T05:43:02.607Z,101100.53
2022-11-06T05:45:30.528Z,101101.66
2022-11-06T05:47:58.726Z,101104.47
2022-11-06T05:50:27.087Z,101096.00
2022-11-06T05:52:55.131Z,101088.69
2022-11-06T05:55:24.419Z,101082.78
2022-11-06T05:57:52.325Z,101073.13
2022-11-06T06:00:20.582Z,101070.31
2022-11-06T06:02:48.612Z,101073.53
2022-11-06T06:05:16.908Z,101063.69
2022-11-06T06:07:45.028Z,101072.81
2022-11-06T06:10:13.195Z,101071.72
2022-11-06T06:12:42.697Z,101075.13
2022-11-06T06:15:11.982Z,101074.03
2022-11-06T06:17:39.986Z,101078.53
2022-11-06T06:20:09.899Z,101073.63
2022-11-06T06:22:37.777Z,101062.47
2022-11-06T06:25:14.607Z,101062.38
2022-11-06T06:27:46.899Z,101060.00
2022-11-06T06:30:15.372Z,101055.38
2022-11-06T06:32:43.547Z,101051.84
2022-11-06T06:35:12.502Z,101058.88
2022-11-06T06:37:40.576Z,101058.06
2022-11-06T06:40:09.783Z,101058.06
2022-11-06T06:42:37.697Z,101060.47
2022-11-06T06:45:08.066Z,101062.69
2022-11-06T06:47:35.896Z,101067.63
2022-11-06T06:50:04.115Z,101076.31
2022-11-06T06:52:32.033Z,101073.94
2022-11-06T06:55:00.119Z,101086.78
2022-11-06T06:57:28.057Z,101080.38
2022-11-06T06:59:56.053Z,101078.75
2022-11-06T07:02:25.449Z,101072.03
2022-11-06T07:04:53.484Z,101072.31
2022-11-06T07:07:21.312Z,101073.94
2022-11-06T07:09:49.255Z,101078.38
2022-11-06T07:12:17.438Z,101077.75
2022-11-06T07:14:45.523Z,101069.63
2022-11-06T07:17:13.769Z,101071.22
2022-11-06T07:19:43.225Z,101077.75
2022-11-06T07:22:11.502Z,101080.16
2022-11-06T07:24:39.731Z,101084.19
2022-11-06T07:27:07.943Z,101084.69
2022-11-06T07:29:35.903Z,101090.00
2022-11-06T07:32:04.366Z,101090.41
2022-11-06T07:34:32.544Z,101089.41
2022-11-06T07:37:07.372Z,101085.97
2022-11-06T07:39:36.304Z,101065.06
2022-11-06T07:42:04.612Z,101075.53
2022-11-06T07:44:32.921Z,101072.31
2022-11-06T07:47:01.022Z,101074.72
2022-11-06T07:49:29.208Z,101064.50
2022-11-06T07:51:57.486Z,101065.47
2022-11-06T07:54:27.151Z,101054.63
2022-11-06T07:56:55.562Z,101065.47
2022-11-06T07:59:23.864Z,101062.44
2022-11-06T08:01:52.318Z,101067.56
2022-11-06T08:04:20.567Z,101060.53
2022-11-06T08:06:48.750Z,101061.84
2022-11-06T08:09:16.963Z,101060.44
2022-11-06T08:11:46.652Z,101060.44
2022-11-06T08:14:15.530Z,101066.47
2022-11-06T08:16:43.888Z,101065.84
2022-11-06T08:19:12.265Z,101071.28
2022-11-06T08:21:40.410Z,101060.44
2022-11-06T08:24:08.976Z,101061.22
2022-11-06T08:26:37.235Z,101056.00
2022-11-06T08:29:06.540Z,101052.97
2022-11-06T08:31:34.915Z,101053.16
2022-11-06T08:34:02.883Z,101055.75
2022-11-06T08:36:31.057Z,101041.28
2022-11-06T08:38:59.567Z,101039.22
2022-11-06T08:41:27.822Z,101036.09
2022-11-06T08:43:55.993Z,101034.38
2022-11-06T08:46:25.754Z,101026.09
2022-11-06T08:48:53.843Z,101021.84
2022-11-06T08:51:21.882Z,101019.19
2022-11-06T08:53:50.440Z,101013.91
2022-11-06T08:56:18.731Z,101016.50
2022-11-06T08:58:49.122Z,101009.84
2022-11-06T09:01:21.127Z,101018.97
2022-11-06T09:03:50.831Z,101017.22
2022-11-06T09:06:19.114Z,101014.84
2022-11-06T09:08:47.244Z,101011.53
2022-11-06T09:11:15.459Z,101011.88
2022-11-06T09:13:43.696Z,100999.72
2022-11-06T09:16:15.872Z,101004.56
2022-11-06T09:18:45.606Z,100999.00
2022-11-06T09:21:15.141Z,100990.19
2022-11-06T09:23:44.706Z,100981.91
2022-11-06T09:26:13.511Z,100980.66
2022-11-06T09:28:41.426Z,100984.34
2022-11-06T09:31:10.522Z,100974.94
2022-11-06T09:33:38.826Z,100968.69
2022-11-06T09:36:09.392Z,100965.38
2022-11-06T09:38:38.750Z,100961.84
2022-11-06T09:41:07.751Z,100944.88
2022-11-06T09:44:05.573Z,100943.59
2022-11-06T09:46:37.866Z,100946.00
2022-11-06T09:49:18.513Z,100944.09
2022-11-06T09:51:54.481Z,100939.28
2022-11-06T09:54:29.942Z,100935.28
2022-11-06T09:57:04.564Z,100942.47
2022-11-06T09:59:37.295Z,100933.84
2022-11-06T10:02:23.163Z,100941.03
2022-11-06T10:04:57.401Z,100936.56
2022-11-06T10:07:30.482Z,100938.16
2022-11-06T10:10:01.380Z,100937.50
2022-11-06T10:12:42.126Z,100930.31
2022-11-06T10:15:23.480Z,100929.19
2022-11-06T10:18:00.821Z,100919.72
2022-11-06T10:20:33.527Z,100921.16
2022-11-06T10:23:07.341Z,100919.06
2022-11-06T10:25:46.490Z,100905.13
2022-11-06T10:28:27.531Z,100905.59
2022-11-06T10:31:04.986Z,100911.66
2022-11-06T10:33:46.939Z,100912.47
2022-11-06T10:36:20.408Z,100912.13
2022-11-06T10:38:50.382Z,100898.19
2022-11-06T10:41:22.906Z,100898.00
2022-11-06T10:43:54.211Z,100886.00
2022-11-06T10:46:29.575Z,100881.97
2022-11-06T10:49:01.411Z,100891.88
2022-11-06T10:51:46.006Z,100898.59
2022-11-06T10:54:29.119Z,100892.47
2022-11-06T10:57:17.924Z,100880.78
2022-11-06T10:59:46.450Z,100881.28
2022-11-06T11:02:25.981Z,100875.34
2022-11-06T11:04:58.022Z,100859.00
2022-11-06T11:07:28.011Z,100853.69
2022-11-06T11:10:06.367Z,100860.75
2022-11-06T11:12:36.391Z,100857.38
2022-11-06T11:15:15.381Z,100852.44
2022-11-06T11:23:19.375Z,100840.00
2022-11-06T11:25:49.395Z,100825.53
2022-11-06T11:28:30.953Z,100819.41
2022-11-06T11:31:07.596Z,100813.44
2022-11-06T11:33:36.476Z,100799.28
2022-11-06T11:36:06.789Z,100797.00
2022-11-06T11:38:37.227Z,100784.63
2022-11-06T11:41:10.696Z,100795.88
2022-11-06T11:43:40.863Z,100793.94
2022-11-06T11:46:21.024Z,100787.69
2022-11-06T11:48:51.587Z,100790.88
2022-11-06T11:51:32.259Z,100789.28
2022-11-06T11:54:06.148Z,100776.00
2022-11-06T11:57:02.854Z,100775.66
2022-11-06T11:59:28.111Z,100769.88
2022-11-06T12:01:59.023Z,100765.25
2022-11-06T12:04:31.113Z,100753.50
2022-11-06T12:07:01.777Z,100744.00
2022-11-06T12:09:33.158Z,100743.78
2022-11-06T12:12:02.681Z,100728.47
2022-11-06T12:14:37.433Z,100716.22
2022-11-06T12:17:14.697Z,100714.91
2022-11-06T12:19:47.913Z,100695.59
2022-11-06T12:22:21.449Z,100701.03
2022-11-06T12:24:54.989Z,100700.22
2022-11-06T12:27:27.442Z,100691.13
2022-11-06T12:30:04.426Z,100691.34
2022-11-06T12:32:47.320Z,100683.06
2022-11-06T12:35:23.605Z,100671.00
2022-11-06T12:38:05.802Z,100654.63
2022-11-06T12:40:39.079Z,100661.00
2022-11-06T12:43:17.145Z,100667.94
2022-11-06T12:46:00.644Z,100667.94
2022-11-06T12:48:50.154Z,100658.72
2022-11-06T12:51:28.569Z,100667.34
2022-11-06T12:54:09.140Z,100661.44
2022-11-06T12:56:46.418Z,100658.25
2022-11-06T12:59:33.225Z,100655.75
2022-11-06T13:02:22.230Z,100644.78
2022-11-06T13:04:57.029Z,100652.19
2022-11-06T13:07:55.769Z,100640.91
2022-11-06T13:10:34.870Z,100650.47
2022-11-06T13:13:19.804Z,100640.22
2022-11-06T13:15:52.863Z,100656.59
2022-11-06T13:18:26.622Z,100659.25
2022-11-06T13:20:59.526Z,100650.88
2022-11-06T13:23:30.900Z,100648.06
2022-11-06T13:26:08.078Z,100642.31
2022-11-06T13:28:41.576Z,100638.19
2022-11-06T13:31:14.356Z,100633.69
2022-11-06T13:33:49.308Z,100629.72
2022-11-06T13:36:18.145Z,100634.38
2022-11-06T13:38:52.574Z,100642.84
2022-11-06T13:41:23.383Z,100642.06
2022-11-06T13:43:57.809Z,100646.63
2022-11-06T13:46:31.118Z,100641.63
2022-11-06T13:49:14.798Z,100640.47
2022-11-06T13:51:51.385Z,100646.97
2022-11-06T13:54:28.161Z,100641.53
2022-11-06T13:57:14.472Z,100620.06
2022-11-06T13:59:53.871Z,100615.84
2022-11-06T14:02:49.349Z,100625.16
2022-11-06T14:05:47.472Z,100623.47
2022-11-06T14:08:19.083Z,100614.38
2022-11-06T14:10:52.794Z,100614.84
2022-11-06T14:13:25.474Z,100605.97
2022-11-06T14:16:01.514Z,100595.84
2022-11-06T14:18:29.518Z,100597.91
2022-11-06T14:21:29.941Z,100605.72
2022-11-06T14:24:07.228Z,100596.69
2022-11-06T14:26:40.177Z,100599.84
2022-11-06T14:29:56.664Z,100599.84
2022-11-06T14:32:37.371Z,100592.81
2022-11-06T14:35:48.752Z,100596.34
2022-11-06T14:38:46.160Z,100593.25
2022-11-06T14:41:48.000Z,100596.34
2022-11-06T14:44:45.208Z,100602.94
2022-11-06T14:47:35.881Z,100603.47
2022-11-06T14:50:08.634Z,100594.81
2022-11-06T14:52:46.507Z,100593.91
2022-11-06T14:55:29.848Z,100591.41
2022-11-06T14:58:01.704Z,100593.00
2022-11-06T15:00:45.623Z,100591.63
2022-11-06T15:03:29.200Z,100591.38
2022-11-06T15:06:02.429Z,100590.31
2022-11-06T15:09:09.928Z,100600.09
2022-11-06T15:12:03.387Z,100588.63
2022-11-06T15:15:07.818Z,100581.91
2022-11-06T15:17:36.954Z,100589.53
2022-11-06T15:20:25.889Z,100578.88
2022-11-06T15:23:05.444Z,100589.63
2022-11-06T15:25:36.228Z,100581.09
2022-11-06T15:28:12.121Z,100591.09
2022-11-06T15:30:46.266Z,100593.09
2022-11-06T15:33:18.617Z,100594.72
2022-11-06T15:35:49.603Z,100596.03
2022-11-06T15:38:21.284Z,100603.72
2022-11-06T15:40:52.650Z,100602.81
2022-11-06T15:43:29.446Z,100604.25
2022-11-06T15:46:09.034Z,100615.03
2022-11-06T15:48:37.036Z,100619.53
2022-11-06T15:51:06.161Z,100619.41
2022-11-06T15:53:40.662Z,100613.38
2022-11-06T15:56:10.700Z,100599.94
2022-11-06T15:58:40.410Z,100595.38
2022-11-06T16:01:12.463Z,100610.78
2022-11-06T16:03:49.702Z,100590.97
2022-11-06T16:06:18.697Z,100583.94
2022-11-06T16:08:47.262Z,100558.97
2022-11-06T16:11:19.117Z,100540.59
2022-11-06T16:13:49.100Z,100531.84
2022-11-06T16:16:35.846Z,100532.69
2022-11-06T16:19:05.826Z,100510.13
2022-11-06T16:21:36.501Z,100510.13
2022-11-06T16:24:11.313Z,100510.13
2022-11-06T16:26:46.650Z,100511.47
2022-11-06T16:29:25.038Z,100489.19
2022-11-06T16:32:01.457Z,100485.84
2022-11-06T16:34:44.135Z,100475.41
2022-11-06T16:37:48.703Z,100479.88
2022-11-06T16:40:49.977Z,100493.59
2022-11-06T16:43:20.520Z,100503.50
2022-11-06T16:45:59.231Z,100497.25
2022-11-06T16:48:36.077Z,100481.56
2022-11-06T16:51:07.278Z,100480.66
2022-11-06T16:53:56.131Z,100468.84
2022-11-06T16:56:26.479Z,100457.69
2022-11-06T16:58:59.242Z,100465.41
2022-11-06T17:01:30.796Z,100474.69
2022-11-06T17:04:02.532Z,100466.19
2022-11-06T17:06:32.709Z,100466.97
2022-11-06T17:09:09.918Z,100468.31
2022-11-06T17:11:38.758Z,100469.09
2022-11-06T17:14:18.701Z,100463.41
2022-11-06T17:16:50.870Z,100461.19
2022-11-06T17:19:19.434Z,100454.66
2022-11-06T17:21:47.838Z,100443.78
2022-11-06T17:24:36.013Z,100454.66
2022-11-06T17:27:03.737Z,100448.47
2022-11-06T17:29:33.563Z,100441.78
2022-11-06T17:32:03.199Z,100435.88
2022-11-06T17:34:30.993Z,100425.97
2022-11-06T17:36:59.019Z,100419.59
2022-11-06T17:39:26.950Z,100406.69
2022-11-06T17:41:55.238Z,100393.75
2022-11-06T17:44:23.710Z,100390.56
2022-11-06T17:46:51.969Z,100379.22
2022-11-06T17:49:21.124Z,100375.53
2022-11-06T17:51:53.509Z,100370.78
2022-11-06T17:54:23.518Z,100375.25
2022-11-06T17:56:53.554Z,100380.69
2022-11-06T17:59:23.929Z,100390.19
2022-11-06T18:01:52.580Z,100385.84
2022-11-06T18:04:24.698Z,100393.44
2022-11-06T18:06:53.599Z,100390.72
2022-11-06T18:09:22.589Z,100396.44
2022-11-06T18:11:51.153Z,100396.00
2022-11-06T18:14:19.047Z,100385.47
2022-11-06T18:16:47.321Z,100402.28
2022-11-06T18:19:17.828Z,100407.72
2022-11-06T18:21:47.364Z,100405.00
2022-11-06T18:24:16.153Z,100395.88
2022-11-06T18:26:44.007Z,100395.75
2022-11-06T18:29:13.696Z,100384.63
2022-11-06T18:31:41.631Z,100369.25
2022-11-06T18:34:18.379Z,100389.38
2022-11-06T18:36:50.318Z,100395.59
2022-11-06T18:39:18.849Z,100397.84
2022-11-06T18:41:46.783Z,100390.38
2022-11-06T18:44:16.212Z,100395.16
2022-11-06T18:46:44.025Z,100393.56
2022-11-06T18:49:12.769Z,100397.41
2022-11-06T18:51:41.435Z,100407.59
2022-11-06T18:54:12.788Z,100403.47
2022-11-06T18:56:40.636Z,100406.19
2022-11-06T18:59:11.138Z,100402.22
2022-11-06T19:01:39.136Z,100405.25
2022-11-06T19:04:08.492Z,100409.91
2022-11-06T19:06:37.914Z,100408.44
2022-11-06T19:09:06.351Z,100406.84
2022-11-06T19:11:36.063Z,100413.06
2022-11-06T19:14:04.231Z,100409.91
2022-11-06T19:16:32.145Z,100415.31
2022-11-06T19:21:35.971Z,100411.81
2022-11-06T19:24:06.349Z,100415.47
2022-11-06T19:26:37.165Z,100416.41
2022-11-06T19:29:07.527Z,100422.47
2022-11-06T19:31:37.174Z,100429.94
2022-11-06T19:34:07.017Z,100427.84
2022-11-06T19:36:35.591Z,100421.75
2022-11-06T19:39:03.645Z,100422.69
2022-11-06T19:41:31.621Z,100420.44
2022-11-06T19:44:00.942Z,100414.56
2022-11-06T19:46:35.111Z,100419.00
2022-11-06T19:49:04.271Z,100413.25
2022-11-06T19:51:33.343Z,100412.13
2022-11-06T19:54:01.480Z,100411.84
2022-11-06T19:56:29.607Z,100405.09
2022-11-06T19:58:57.647Z,100426.84
2022-11-06T20:01:27.074Z,100435.78
2022-11-06T20:03:55.150Z,100443.59
2022-11-06T20:06:23.059Z,100443.41
2022-11-06T20:08:51.331Z,100449.78
2022-11-06T20:11:19.386Z,100443.53
2022-11-06T20:13:48.049Z,100452.97
2022-11-06T20:16:18.236Z,100451.63
2022-11-06T20:18:52.057Z,100460.81
2022-11-06T20:21:21.108Z,100464.78
2022-11-06T20:23:49.129Z,100472.59
2022-11-06T20:26:17.368Z,100469.41
2022-11-06T20:28:46.952Z,100462.38
2022-11-06T20:31:16.272Z,100470.09
2022-11-06T20:33:44.146Z,100464.66
2022-11-06T20:36:17.074Z,100460.66
2022-11-06T20:38:45.971Z,100457.94
2022-11-06T20:41:14.568Z,100455.88
2022-11-06T20:43:43.915Z,100459.06
2022-11-06T20:46:13.723Z,100452.03
2022-11-06T20:48:43.169Z,100459.72
2022-11-06T20:51:15.946Z,100467.09
2022-11-06T20:53:44.210Z,100462.78
2022-11-06T20:56:13.956Z,100471.22
2022-11-06T20:58:42.143Z,100473.66
2022-11-06T21:01:12.327Z,100476.03
2022-11-06T21:03:41.317Z,100472.03
2022-11-06T21:06:10.219Z,100481.31
2022-11-06T21:08:41.208Z,100486.91
2022-11-06T21:11:12.746Z,100500.94
2022-11-06T21:13:42.378Z,100490.75
2022-11-06T21:16:14.247Z,100496.19
2022-11-06T21:18:42.988Z,100492.78
2022-11-06T21:21:13.865Z,100493.25
2022-11-06T21:23:43.431Z,100507.66
2022-11-06T21:26:14.702Z,100500.28
2022-11-06T21:28:44.722Z,100511.03
2022-11-06T21:31:14.684Z,100511.50
2022-11-06T21:33:43.252Z,100531.47
2022-11-06T21:36:12.806Z,100526.81
2022-11-06T21:38:41.112Z,100533.84
2022-11-06T21:41:12.391Z,100526.16
2022-11-06T21:43:43.249Z,100529.38
2022-11-06T21:46:13.596Z,100533.19
2022-11-06T21:48:47.225Z,100538.81
2022-11-06T21:51:19.802Z,100532.72
2022-11-06T21:54:05.793Z,100536.72
2022-11-06T21:56:36.124Z,100531.75
2022-11-06T21:59:05.560Z,100543.06
2022-11-06T22:01:34.167Z,100541.94
2022-11-06T22:04:02.364Z,100533.78
2022-11-06T22:06:31.063Z,100544.50
2022-11-06T22:09:00.673Z,100531.84
2022-11-06T22:11:30.997Z,100532.75
2022-11-06T22:14:02.589Z,100534.34
2022-11-06T22:16:32.931Z,100543.91
2022-11-06T22:19:01.209Z,100552.56
2022-11-06T22:21:30.827Z,100558.94
2022-11-06T22:23:58.852Z,100558.28
2022-11-06T22:26:29.124Z,100551.38
2022-11-06T22:28:58.727Z,100567.38
2022-11-06T22:31:29.061Z,100557.78
2022-11-06T22:33:57.664Z,100556.31
2022-11-06T22:36:26.514Z,100555.63
2022-11-06T22:38:55.059Z,100565.88
2022-11-06T22:41:25.132Z,100566.34
2022-11-06T22:43:53.682Z,100567.59
2022-11-06T22:46:24.293Z,100568.06
2022-11-06T22:48:54.457Z,100572.06
2022-11-06T22:51:23.918Z,100570.47
2022-11-06T22:53:52.363Z,100570.91
2022-11-06T22:56:21.393Z,100573.63
2022-11-06T22:58:53.467Z,100567.84
2022-11-06T23:01:22.780Z,100575.22
2022-11-06T23:03:50.939Z,100571.88
2022-11-06T23:06:20.177Z,100571.88
2022-11-06T23:08:47.892Z,100579.69
2022-11-06T23:11:17.249Z,100573.91
2022-11-06T23:13:45.763Z,100573.44
2022-11-06T23:16:18.086Z,100576.03
2022-11-06T23:18:46.245Z,100573.63
2022-11-06T23:21:15.306Z,100577.03
2022-11-06T23:23:45.585Z,100583.13
2022-11-06T23:26:14.596Z,100577.69
2022-11-06T23:28:43.669Z,100577.88
2022-11-06T23:31:13.689Z,100575.97
2022-11-06T23:33:41.855Z,100583.00
2022-11-06T23:36:11.830Z,100563.50
2022-11-06T23:38:39.862Z,100586.06
2022-11-06T23:41:24.743Z,100586.69
2022-11-06T23:43:52.657Z,100596.59
2022-11-06T23:46:19.651Z,100590.81
2022-11-06T23:48:47.443Z,100593.09
2022-11-06T23:51:15.678Z,100591.00
2022-11-06T23:53:43.880Z,100593.72
2022-11-06T23:56:14.457Z,100596.78
2022-11-06T23:58:43.200Z,100601.88
